sensor_id;sensor_type;location;lat;lon;timestamp;P1;durP1;ratioP1;P2;durP2;ratioP2
11386;SDS011;5748;53.102;8.456;2024-01-27T00:01:52;5.43;;;1.30;;
11386;SDS011;5748;53.102;8.456;2024-01-27T00:04:20;4.23;;;1.60;;
11386;SDS011;5748;53.102;8.456;2024-01-27T00:06:47;2.97;;;1.33;;
11386;SDS011;5748;53.102;8.456;2024-01-27T00:09:15;3.17;;;1.17;;
11386;SDS011;5748;53.102;8.456;2024-01-27T00:11:42;3.30;;;1.43;;
11386;SDS011;5748;53.102;8.456;2024-01-27T00:14:09;2.30;;;1.13;;
11386;SDS011;5748;53.102;8.456;2024-01-27T00:16:36;3.43;;;1.33;;
11386;SDS011;5748;53.102;8.456;2024-01-27T00:19:03;2.87;;;1.40;;
11386;SDS011;5748;53.102;8.456;2024-01-27T00:21:31;2.30;;;1.23;;
11386;SDS011;5748;53.102;8.456;2024-01-27T00:23:58;1.73;;;1.13;;
11386;SDS011;5748;53.102;8.456;2024-01-27T00:26:28;2.90;;;1.40;;
11386;SDS011;5748;53.102;8.456;2024-01-27T00:28:55;2.00;;;1.10;;
11386;SDS011;5748;53.102;8.456;2024-01-27T00:31:22;4.20;;;1.60;;
11386;SDS011;5748;53.102;8.456;2024-01-27T00:33:49;2.90;;;1.60;;
11386;SDS011;5748;53.102;8.456;2024-01-27T00:36:16;3.27;;;1.40;;
11386;SDS011;5748;53.102;8.456;2024-01-27T00:38:46;4.00;;;1.77;;
11386;SDS011;5748;53.102;8.456;2024-01-27T00:41:15;3.37;;;1.50;;
11386;SDS011;5748;53.102;8.456;2024-01-27T00:43:43;4.73;;;1.60;;
11386;SDS011;5748;53.102;8.456;2024-01-27T00:46:10;2.33;;;1.33;;
11386;SDS011;5748;53.102;8.456;2024-01-27T00:48:37;3.40;;;1.40;;
11386;SDS011;5748;53.102;8.456;2024-01-27T00:51:04;1.87;;;1.03;;
11386;SDS011;5748;53.102;8.456;2024-01-27T00:53:31;1.90;;;1.20;;
11386;SDS011;5748;53.102;8.456;2024-01-27T00:56:00;2.37;;;1.40;;
11386;SDS011;5748;53.102;8.456;2024-01-27T00:58:28;2.40;;;1.30;;
11386;SDS011;5748;53.102;8.456;2024-01-27T01:00:55;2.73;;;1.43;;
11386;SDS011;5748;53.102;8.456;2024-01-27T01:03:22;3.17;;;1.50;;
11386;SDS011;5748;53.102;8.456;2024-01-27T01:05:49;3.60;;;1.50;;
11386;SDS011;5748;53.102;8.456;2024-01-27T01:08:16;1.47;;;1.00;;
11386;SDS011;5748;53.102;8.456;2024-01-27T01:10:43;2.83;;;1.47;;
11386;SDS011;5748;53.102;8.456;2024-01-27T01:13:12;3.40;;;1.70;;
11386;SDS011;5748;53.102;8.456;2024-01-27T01:15:39;2.70;;;1.47;;
11386;SDS011;5748;53.102;8.456;2024-01-27T01:18:06;3.63;;;1.63;;
11386;SDS011;5748;53.102;8.456;2024-01-27T01:20:33;3.60;;;1.63;;
11386;SDS011;5748;53.102;8.456;2024-01-27T01:23:00;4.57;;;1.50;;
11386;SDS011;5748;53.102;8.456;2024-01-27T01:25:27;5.73;;;1.73;;
11386;SDS011;5748;53.102;8.456;2024-01-27T01:27:55;3.50;;;1.40;;
11386;SDS011;5748;53.102;8.456;2024-01-27T01:30:24;3.20;;;1.70;;
11386;SDS011;5748;53.102;8.456;2024-01-27T01:32:51;4.27;;;1.30;;
11386;SDS011;5748;53.102;8.456;2024-01-27T01:35:18;2.90;;;1.33;;
11386;SDS011;5748;53.102;8.456;2024-01-27T01:37:45;2.27;;;1.30;;
11386;SDS011;5748;53.102;8.456;2024-01-27T01:40:13;4.03;;;1.57;;
11386;SDS011;5748;53.102;8.456;2024-01-27T01:42:40;3.27;;;1.30;;
11386;SDS011;5748;53.102;8.456;2024-01-27T01:45:08;2.13;;;1.30;;
11386;SDS011;5748;53.102;8.456;2024-01-27T01:47:39;2.90;;;1.57;;
11386;SDS011;5748;53.102;8.456;2024-01-27T01:50:07;2.30;;;1.37;;
11386;SDS011;5748;53.102;8.456;2024-01-27T01:52:35;5.63;;;1.87;;
11386;SDS011;5748;53.102;8.456;2024-01-27T01:55:04;2.27;;;1.20;;
11386;SDS011;5748;53.102;8.456;2024-01-27T01:57:32;3.57;;;1.27;;
11386;SDS011;5748;53.102;8.456;2024-01-27T02:00:00;2.20;;;1.20;;
11386;SDS011;5748;53.102;8.456;2024-01-27T02:02:27;3.97;;;1.50;;
11386;SDS011;5748;53.102;8.456;2024-01-27T02:04:56;4.30;;;1.57;;
11386;SDS011;5748;53.102;8.456;2024-01-27T02:07:23;3.97;;;1.50;;
11386;SDS011;5748;53.102;8.456;2024-01-27T02:09:50;2.70;;;1.30;;
11386;SDS011;5748;53.102;8.456;2024-01-27T02:12:17;1.93;;;1.30;;
11386;SDS011;5748;53.102;8.456;2024-01-27T02:14:44;3.73;;;1.60;;
11386;SDS011;5748;53.102;8.456;2024-01-27T02:17:11;2.03;;;1.20;;
11386;SDS011;5748;53.102;8.456;2024-01-27T02:19:38;2.70;;;1.20;;
11386;SDS011;5748;53.102;8.456;2024-01-27T02:22:06;1.63;;;1.10;;
11386;SDS011;5748;53.102;8.456;2024-01-27T02:24:35;5.47;;;1.60;;
11386;SDS011;5748;53.102;8.456;2024-01-27T02:27:02;4.63;;;1.27;;
11386;SDS011;5748;53.102;8.456;2024-01-27T02:29:29;2.43;;;1.40;;
11386;SDS011;5748;53.102;8.456;2024-01-27T02:31:56;3.67;;;1.50;;
11386;SDS011;5748;53.102;8.456;2024-01-27T02:34:24;2.50;;;1.40;;
11386;SDS011;5748;53.102;8.456;2024-01-27T02:36:51;3.33;;;1.47;;
11386;SDS011;5748;53.102;8.456;2024-01-27T02:39:18;2.47;;;1.20;;
11386;SDS011;5748;53.102;8.456;2024-01-27T02:41:46;2.27;;;1.30;;
11386;SDS011;5748;53.102;8.456;2024-01-27T02:44:14;2.10;;;1.30;;
11386;SDS011;5748;53.102;8.456;2024-01-27T02:46:41;2.70;;;1.20;;
11386;SDS011;5748;53.102;8.456;2024-01-27T02:49:09;6.27;;;1.50;;
11386;SDS011;5748;53.102;8.456;2024-01-27T02:51:36;3.30;;;1.33;;
11386;SDS011;5748;53.102;8.456;2024-01-27T02:54:03;4.77;;;2.10;;
11386;SDS011;5748;53.102;8.456;2024-01-27T02:56:30;2.00;;;1.47;;
11386;SDS011;5748;53.102;8.456;2024-01-27T02:58:59;3.30;;;1.70;;
11386;SDS011;5748;53.102;8.456;2024-01-27T03:01:26;2.77;;;1.40;;
11386;SDS011;5748;53.102;8.456;2024-01-27T03:03:53;2.17;;;1.20;;
11386;SDS011;5748;53.102;8.456;2024-01-27T03:06:20;4.43;;;1.53;;
11386;SDS011;5748;53.102;8.456;2024-01-27T03:08:47;3.37;;;1.67;;
11386;SDS011;5748;53.102;8.456;2024-01-27T03:11:14;2.67;;;1.43;;
11386;SDS011;5748;53.102;8.456;2024-01-27T03:13:41;2.43;;;1.30;;
11386;SDS011;5748;53.102;8.456;2024-01-27T03:16:11;2.63;;;1.30;;
11386;SDS011;5748;53.102;8.456;2024-01-27T03:18:39;2.53;;;1.20;;
11386;SDS011;5748;53.102;8.456;2024-01-27T03:21:06;2.87;;;1.20;;
11386;SDS011;5748;53.102;8.456;2024-01-27T03:23:33;2.63;;;1.37;;
11386;SDS011;5748;53.102;8.456;2024-01-27T03:26:01;2.60;;;1.27;;
11386;SDS011;5748;53.102;8.456;2024-01-27T03:28:29;2.87;;;1.57;;
11386;SDS011;5748;53.102;8.456;2024-01-27T03:30:56;2.87;;;1.80;;
11386;SDS011;5748;53.102;8.456;2024-01-27T03:33:26;2.63;;;1.27;;
11386;SDS011;5748;53.102;8.456;2024-01-27T03:35:55;2.97;;;1.37;;
11386;SDS011;5748;53.102;8.456;2024-01-27T03:38:22;3.13;;;1.33;;
11386;SDS011;5748;53.102;8.456;2024-01-27T03:40:49;2.03;;;1.20;;
11386;SDS011;5748;53.102;8.456;2024-01-27T03:43:17;2.20;;;1.40;;
11386;SDS011;5748;53.102;8.456;2024-01-27T03:45:44;2.30;;;1.40;;
11386;SDS011;5748;53.102;8.456;2024-01-27T03:48:11;2.47;;;1.60;;
11386;SDS011;5748;53.102;8.456;2024-01-27T03:50:39;4.50;;;1.80;;
11386;SDS011;5748;53.102;8.456;2024-01-27T03:53:07;3.00;;;1.37;;
11386;SDS011;5748;53.102;8.456;2024-01-27T03:55:34;3.03;;;1.20;;
11386;SDS011;5748;53.102;8.456;2024-01-27T03:58:01;2.00;;;1.10;;
11386;SDS011;5748;53.102;8.456;2024-01-27T04:00:28;2.50;;;1.60;;
11386;SDS011;5748;53.102;8.456;2024-01-27T04:02:57;1.80;;;1.20;;
11386;SDS011;5748;53.102;8.456;2024-01-27T04:05:25;1.87;;;1.47;;
11386;SDS011;5748;53.102;8.456;2024-01-27T04:07:53;1.70;;;1.20;;
11386;SDS011;5748;53.102;8.456;2024-01-27T04:10:20;1.47;;;1.10;;
11386;SDS011;5748;53.102;8.456;2024-01-27T04:12:48;3.30;;;1.30;;
11386;SDS011;5748;53.102;8.456;2024-01-27T04:15:15;3.20;;;1.20;;
11386;SDS011;5748;53.102;8.456;2024-01-27T04:17:42;2.63;;;1.30;;
11386;SDS011;5748;53.102;8.456;2024-01-27T04:20:10;2.33;;;1.10;;
11386;SDS011;5748;53.102;8.456;2024-01-27T04:22:38;4.30;;;1.80;;
11386;SDS011;5748;53.102;8.456;2024-01-27T04:25:07;1.90;;;1.23;;
11386;SDS011;5748;53.102;8.456;2024-01-27T04:27:36;3.03;;;1.40;;
11386;SDS011;5748;53.102;8.456;2024-01-27T04:30:05;2.53;;;1.43;;
11386;SDS011;5748;53.102;8.456;2024-01-27T04:32:32;2.17;;;1.30;;
11386;SDS011;5748;53.102;8.456;2024-01-27T04:34:59;2.00;;;1.10;;
11386;SDS011;5748;53.102;8.456;2024-01-27T04:37:26;2.60;;;1.20;;
11386;SDS011;5748;53.102;8.456;2024-01-27T04:39:53;3.30;;;1.53;;
11386;SDS011;5748;53.102;8.456;2024-01-27T04:42:21;3.53;;;1.80;;
11386;SDS011;5748;53.102;8.456;2024-01-27T04:44:48;1.73;;;1.13;;
11386;SDS011;5748;53.102;8.456;2024-01-27T04:47:15;1.87;;;1.23;;
11386;SDS011;5748;53.102;8.456;2024-01-27T04:49:43;3.53;;;1.50;;
11386;SDS011;5748;53.102;8.456;2024-01-27T04:52:10;1.63;;;1.20;;
11386;SDS011;5748;53.102;8.456;2024-01-27T04:54:37;2.40;;;1.53;;
11386;SDS011;5748;53.102;8.456;2024-01-27T04:57:04;1.97;;;1.20;;
11386;SDS011;5748;53.102;8.456;2024-01-27T04:59:32;2.30;;;1.40;;
11386;SDS011;5748;53.102;8.456;2024-01-27T05:01:59;2.23;;;1.37;;
11386;SDS011;5748;53.102;8.456;2024-01-27T05:04:27;3.60;;;1.40;;
11386;SDS011;5748;53.102;8.456;2024-01-27T05:06:54;2.37;;;1.43;;
11386;SDS011;5748;53.102;8.456;2024-01-27T05:09:21;4.07;;;1.57;;
11386;SDS011;5748;53.102;8.456;2024-01-27T05:11:48;3.23;;;1.80;;
11386;SDS011;5748;53.102;8.456;2024-01-27T05:14:16;2.37;;;1.40;;
11386;SDS011;5748;53.102;8.456;2024-01-27T05:16:45;2.93;;;1.30;;
11386;SDS011;5748;53.102;8.456;2024-01-27T05:19:12;2.13;;;1.50;;
11386;SDS011;5748;53.102;8.456;2024-01-27T05:21:42;2.53;;;1.47;;
11386;SDS011;5748;53.102;8.456;2024-01-27T05:24:09;2.03;;;1.40;;
11386;SDS011;5748;53.102;8.456;2024-01-27T05:26:36;1.80;;;1.30;;
11386;SDS011;5748;53.102;8.456;2024-01-27T05:29:03;3.77;;;1.57;;
11386;SDS011;5748;53.102;8.456;2024-01-27T05:31:30;2.90;;;1.30;;
11386;SDS011;5748;53.102;8.456;2024-01-27T05:33:59;3.40;;;1.70;;
11386;SDS011;5748;53.102;8.456;2024-01-27T05:36:26;2.37;;;1.30;;
11386;SDS011;5748;53.102;8.456;2024-01-27T05:38:56;5.37;;;1.60;;
11386;SDS011;5748;53.102;8.456;2024-01-27T05:41:29;3.60;;;1.60;;
11386;SDS011;5748;53.102;8.456;2024-01-27T05:43:56;2.67;;;1.60;;
11386;SDS011;5748;53.102;8.456;2024-01-27T05:46:23;1.97;;;1.30;;
11386;SDS011;5748;53.102;8.456;2024-01-27T05:48:51;1.97;;;1.50;;
11386;SDS011;5748;53.102;8.456;2024-01-27T05:51:24;2.80;;;1.40;;
11386;SDS011;5748;53.102;8.456;2024-01-27T05:53:51;2.37;;;1.40;;
11386;SDS011;5748;53.102;8.456;2024-01-27T05:56:18;2.87;;;1.27;;
11386;SDS011;5748;53.102;8.456;2024-01-27T05:58:45;2.57;;;1.47;;
11386;SDS011;5748;53.102;8.456;2024-01-27T06:01:13;2.53;;;1.40;;
11386;SDS011;5748;53.102;8.456;2024-01-27T06:03:40;2.63;;;1.60;;
11386;SDS011;5748;53.102;8.456;2024-01-27T06:06:08;2.23;;;1.57;;
11386;SDS011;5748;53.102;8.456;2024-01-27T06:08:36;2.40;;;1.40;;
11386;SDS011;5748;53.102;8.456;2024-01-27T06:11:04;2.07;;;1.27;;
11386;SDS011;5748;53.102;8.456;2024-01-27T06:13:31;2.37;;;1.50;;
11386;SDS011;5748;53.102;8.456;2024-01-27T06:15:59;2.77;;;1.30;;
11386;SDS011;5748;53.102;8.456;2024-01-27T06:18:26;2.73;;;1.50;;
11386;SDS011;5748;53.102;8.456;2024-01-27T06:20:53;3.87;;;1.57;;
11386;SDS011;5748;53.102;8.456;2024-01-27T06:23:20;1.93;;;1.30;;
11386;SDS011;5748;53.102;8.456;2024-01-27T06:25:49;2.97;;;1.70;;
11386;SDS011;5748;53.102;8.456;2024-01-27T06:28:16;2.83;;;1.70;;
11386;SDS011;5748;53.102;8.456;2024-01-27T06:30:43;2.43;;;1.53;;
11386;SDS011;5748;53.102;8.456;2024-01-27T06:33:10;3.10;;;1.70;;
11386;SDS011;5748;53.102;8.456;2024-01-27T06:35:38;2.40;;;1.47;;
11386;SDS011;5748;53.102;8.456;2024-01-27T06:38:05;2.43;;;1.57;;
11386;SDS011;5748;53.102;8.456;2024-01-27T06:40:32;2.70;;;1.60;;
11386;SDS011;5748;53.102;8.456;2024-01-27T06:43:01;2.27;;;1.53;;
11386;SDS011;5748;53.102;8.456;2024-01-27T06:45:28;3.87;;;1.60;;
11386;SDS011;5748;53.102;8.456;2024-01-27T06:47:56;3.80;;;1.93;;
11386;SDS011;5748;53.102;8.456;2024-01-27T06:50:22;2.40;;;1.50;;
11386;SDS011;5748;53.102;8.456;2024-01-27T06:52:49;1.77;;;1.30;;
11386;SDS011;5748;53.102;8.456;2024-01-27T06:55:17;2.10;;;1.43;;
11386;SDS011;5748;53.102;8.456;2024-01-27T06:57:44;2.27;;;1.50;;
11386;SDS011;5748;53.102;8.456;2024-01-27T07:00:13;3.37;;;1.53;;
11386;SDS011;5748;53.102;8.456;2024-01-27T07:02:41;2.33;;;1.50;;
11386;SDS011;5748;53.102;8.456;2024-01-27T07:05:08;2.70;;;1.83;;
11386;SDS011;5748;53.102;8.456;2024-01-27T07:07:37;3.07;;;1.90;;
11386;SDS011;5748;53.102;8.456;2024-01-27T07:10:04;2.80;;;1.60;;
11386;SDS011;5748;53.102;8.456;2024-01-27T07:12:34;3.20;;;1.90;;
11386;SDS011;5748;53.102;8.456;2024-01-27T07:15:01;1.73;;;1.60;;
11386;SDS011;5748;53.102;8.456;2024-01-27T07:17:30;3.60;;;1.90;;
11386;SDS011;5748;53.102;8.456;2024-01-27T07:19:57;2.43;;;1.60;;
11386;SDS011;5748;53.102;8.456;2024-01-27T07:22:24;4.27;;;1.80;;
11386;SDS011;5748;53.102;8.456;2024-01-27T07:24:51;4.67;;;1.97;;
11386;SDS011;5748;53.102;8.456;2024-01-27T07:27:18;2.83;;;1.70;;
11386;SDS011;5748;53.102;8.456;2024-01-27T07:29:45;2.53;;;1.57;;
11386;SDS011;5748;53.102;8.456;2024-01-27T07:32:13;1.80;;;1.60;;
11386;SDS011;5748;53.102;8.456;2024-01-27T07:34:42;2.73;;;1.63;;
11386;SDS011;5748;53.102;8.456;2024-01-27T07:37:09;2.30;;;1.60;;
11386;SDS011;5748;53.102;8.456;2024-01-27T07:39:37;1.87;;;1.43;;
11386;SDS011;5748;53.102;8.456;2024-01-27T07:42:04;2.27;;;1.50;;
11386;SDS011;5748;53.102;8.456;2024-01-27T07:44:31;2.20;;;1.60;;
11386;SDS011;5748;53.102;8.456;2024-01-27T07:46:58;2.70;;;1.50;;
11386;SDS011;5748;53.102;8.456;2024-01-27T07:49:26;2.40;;;1.40;;
11386;SDS011;5748;53.102;8.456;2024-01-27T07:51:54;3.00;;;1.80;;
11386;SDS011;5748;53.102;8.456;2024-01-27T07:54:22;2.27;;;1.57;;
11386;SDS011;5748;53.102;8.456;2024-01-27T07:56:49;2.10;;;1.57;;
11386;SDS011;5748;53.102;8.456;2024-01-27T07:59:16;2.33;;;1.50;;
11386;SDS011;5748;53.102;8.456;2024-01-27T08:01:43;2.00;;;1.50;;
11386;SDS011;5748;53.102;8.456;2024-01-27T08:04:11;3.70;;;1.40;;
11386;SDS011;5748;53.102;8.456;2024-01-27T08:06:45;4.63;;;2.00;;
11386;SDS011;5748;53.102;8.456;2024-01-27T08:09:16;2.20;;;1.77;;
11386;SDS011;5748;53.102;8.456;2024-01-27T08:11:43;3.70;;;1.87;;
11386;SDS011;5748;53.102;8.456;2024-01-27T08:14:10;2.20;;;1.37;;
11386;SDS011;5748;53.102;8.456;2024-01-27T08:16:38;3.03;;;1.63;;
11386;SDS011;5748;53.102;8.456;2024-01-27T08:19:05;3.53;;;1.80;;
11386;SDS011;5748;53.102;8.456;2024-01-27T08:21:32;2.43;;;1.67;;
11386;SDS011;5748;53.102;8.456;2024-01-27T08:23:59;2.20;;;1.60;;
11386;SDS011;5748;53.102;8.456;2024-01-27T08:26:31;3.13;;;1.57;;
11386;SDS011;5748;53.102;8.456;2024-01-27T08:28:58;2.73;;;1.60;;
11386;SDS011;5748;53.102;8.456;2024-01-27T08:31:25;2.47;;;1.70;;
11386;SDS011;5748;53.102;8.456;2024-01-27T08:33:52;3.20;;;1.63;;
11386;SDS011;5748;53.102;8.456;2024-01-27T08:36:19;2.27;;;1.33;;
11386;SDS011;5748;53.102;8.456;2024-01-27T08:38:46;2.77;;;1.50;;
11386;SDS011;5748;53.102;8.456;2024-01-27T08:41:13;2.10;;;1.50;;
11386;SDS011;5748;53.102;8.456;2024-01-27T08:43:42;3.73;;;1.70;;
11386;SDS011;5748;53.102;8.456;2024-01-27T08:46:09;2.97;;;1.70;;
11386;SDS011;5748;53.102;8.456;2024-01-27T08:48:38;3.73;;;1.60;;
11386;SDS011;5748;53.102;8.456;2024-01-27T08:51:07;2.53;;;1.47;;
11386;SDS011;5748;53.102;8.456;2024-01-27T08:53:35;2.77;;;1.73;;
11386;SDS011;5748;53.102;8.456;2024-01-27T08:56:02;3.07;;;1.83;;
11386;SDS011;5748;53.102;8.456;2024-01-27T08:58:29;1.90;;;1.57;;
11386;SDS011;5748;53.102;8.456;2024-01-27T09:00:58;2.10;;;1.57;;
11386;SDS011;5748;53.102;8.456;2024-01-27T09:03:30;2.50;;;1.90;;
11386;SDS011;5748;53.102;8.456;2024-01-27T09:05:57;3.37;;;1.90;;
11386;SDS011;5748;53.102;8.456;2024-01-27T09:08:24;2.43;;;1.80;;
11386;SDS011;5748;53.102;8.456;2024-01-27T09:10:51;4.00;;;2.30;;
11386;SDS011;5748;53.102;8.456;2024-01-27T09:13:18;2.90;;;1.87;;
11386;SDS011;5748;53.102;8.456;2024-01-27T09:15:45;3.63;;;2.20;;
11386;SDS011;5748;53.102;8.456;2024-01-27T09:18:15;3.50;;;1.60;;
11386;SDS011;5748;53.102;8.456;2024-01-27T09:20:42;4.80;;;1.90;;
11386;SDS011;5748;53.102;8.456;2024-01-27T09:23:09;2.97;;;1.77;;
11386;SDS011;5748;53.102;8.456;2024-01-27T09:25:36;2.63;;;1.73;;
11386;SDS011;5748;53.102;8.456;2024-01-27T09:28:04;3.10;;;1.73;;
11386;SDS011;5748;53.102;8.456;2024-01-27T09:30:31;2.73;;;1.80;;
11386;SDS011;5748;53.102;8.456;2024-01-27T09:32:58;3.37;;;2.03;;
11386;SDS011;5748;53.102;8.456;2024-01-27T09:35:27;3.20;;;2.00;;
11386;SDS011;5748;53.102;8.456;2024-01-27T09:37:54;2.90;;;1.97;;
11386;SDS011;5748;53.102;8.456;2024-01-27T09:40:21;4.67;;;2.27;;
11386;SDS011;5748;53.102;8.456;2024-01-27T09:42:50;3.13;;;2.13;;
11386;SDS011;5748;53.102;8.456;2024-01-27T09:45:19;3.33;;;1.83;;
11386;SDS011;5748;53.102;8.456;2024-01-27T09:47:47;3.60;;;2.10;;
11386;SDS011;5748;53.102;8.456;2024-01-27T09:50:14;3.07;;;1.87;;
11386;SDS011;5748;53.102;8.456;2024-01-27T09:52:45;3.10;;;2.10;;
11386;SDS011;5748;53.102;8.456;2024-01-27T09:55:13;3.60;;;2.10;;
11386;SDS011;5748;53.102;8.456;2024-01-27T09:57:40;3.17;;;1.87;;
11386;SDS011;5748;53.102;8.456;2024-01-27T10:00:09;2.57;;;1.80;;
11386;SDS011;5748;53.102;8.456;2024-01-27T10:02:38;3.53;;;2.20;;
11386;SDS011;5748;53.102;8.456;2024-01-27T10:05:07;3.43;;;2.53;;
11386;SDS011;5748;53.102;8.456;2024-01-27T10:07:35;3.93;;;2.43;;
11386;SDS011;5748;53.102;8.456;2024-01-27T10:10:04;4.13;;;2.10;;
11386;SDS011;5748;53.102;8.456;2024-01-27T10:12:32;3.30;;;2.40;;
11386;SDS011;5748;53.102;8.456;2024-01-27T10:15:07;4.27;;;2.50;;
11386;SDS011;5748;53.102;8.456;2024-01-27T10:17:44;2.63;;;2.10;;
11386;SDS011;5748;53.102;8.456;2024-01-27T10:20:12;3.30;;;2.30;;
11386;SDS011;5748;53.102;8.456;2024-01-27T10:22:40;4.83;;;2.30;;
11386;SDS011;5748;53.102;8.456;2024-01-27T10:25:11;3.83;;;2.53;;
11386;SDS011;5748;53.102;8.456;2024-01-27T10:27:38;2.97;;;2.10;;
11386;SDS011;5748;53.102;8.456;2024-01-27T10:30:07;4.17;;;2.20;;
11386;SDS011;5748;53.102;8.456;2024-01-27T10:32:43;3.53;;;1.93;;
11386;SDS011;5748;53.102;8.456;2024-01-27T10:35:21;3.07;;;2.17;;
11386;SDS011;5748;53.102;8.456;2024-01-27T10:37:51;2.73;;;1.80;;
11386;SDS011;5748;53.102;8.456;2024-01-27T10:40:21;4.60;;;2.53;;
11386;SDS011;5748;53.102;8.456;2024-01-27T10:42:51;2.87;;;2.13;;
11386;SDS011;5748;53.102;8.456;2024-01-27T10:45:28;3.43;;;2.40;;
11386;SDS011;5748;53.102;8.456;2024-01-27T10:48:01;3.27;;;2.50;;
11386;SDS011;5748;53.102;8.456;2024-01-27T10:50:30;3.73;;;2.30;;
11386;SDS011;5748;53.102;8.456;2024-01-27T10:53:02;3.30;;;2.27;;
11386;SDS011;5748;53.102;8.456;2024-01-27T10:55:33;2.80;;;2.10;;
11386;SDS011;5748;53.102;8.456;2024-01-27T10:58:01;2.73;;;1.93;;
11386;SDS011;5748;53.102;8.456;2024-01-27T11:00:29;3.53;;;2.23;;
11386;SDS011;5748;53.102;8.456;2024-01-27T11:02:58;3.93;;;2.20;;
11386;SDS011;5748;53.102;8.456;2024-01-27T11:05:27;3.83;;;2.23;;
11386;SDS011;5748;53.102;8.456;2024-01-27T11:07:55;3.83;;;2.10;;
11386;SDS011;5748;53.102;8.456;2024-01-27T11:10:22;3.83;;;2.33;;
11386;SDS011;5748;53.102;8.456;2024-01-27T11:12:51;2.93;;;2.20;;
11386;SDS011;5748;53.102;8.456;2024-01-27T11:15:20;3.07;;;2.30;;
11386;SDS011;5748;53.102;8.456;2024-01-27T11:17:49;4.30;;;2.27;;
11386;SDS011;5748;53.102;8.456;2024-01-27T11:20:16;2.43;;;1.90;;
11386;SDS011;5748;53.102;8.456;2024-01-27T11:22:44;3.00;;;1.93;;
11386;SDS011;5748;53.102;8.456;2024-01-27T11:25:14;2.57;;;1.90;;
11386;SDS011;5748;53.102;8.456;2024-01-27T11:27:44;3.80;;;2.17;;
11386;SDS011;5748;53.102;8.456;2024-01-27T11:30:26;2.40;;;1.73;;
11386;SDS011;5748;53.102;8.456;2024-01-27T11:32:55;3.80;;;1.97;;
11386;SDS011;5748;53.102;8.456;2024-01-27T11:35:22;2.17;;;1.83;;
11386;SDS011;5748;53.102;8.456;2024-01-27T11:37:50;2.40;;;1.80;;
11386;SDS011;5748;53.102;8.456;2024-01-27T11:40:18;2.23;;;1.60;;
11386;SDS011;5748;53.102;8.456;2024-01-27T11:42:53;3.07;;;1.80;;
11386;SDS011;5748;53.102;8.456;2024-01-27T11:45:21;3.30;;;1.83;;
11386;SDS011;5748;53.102;8.456;2024-01-27T11:47:50;2.57;;;1.70;;
11386;SDS011;5748;53.102;8.456;2024-01-27T11:50:17;3.33;;;2.03;;
11386;SDS011;5748;53.102;8.456;2024-01-27T11:52:45;3.20;;;1.70;;
11386;SDS011;5748;53.102;8.456;2024-01-27T11:55:13;2.63;;;1.60;;
11386;SDS011;5748;53.102;8.456;2024-01-27T11:57:41;2.53;;;1.60;;
11386;SDS011;5748;53.102;8.456;2024-01-27T12:00:08;2.03;;;1.33;;
11386;SDS011;5748;53.102;8.456;2024-01-27T12:02:36;2.67;;;1.60;;
11386;SDS011;5748;53.102;8.456;2024-01-27T12:05:04;4.77;;;1.87;;
11386;SDS011;5748;53.102;8.456;2024-01-27T12:07:33;3.00;;;2.00;;
11386;SDS011;5748;53.102;8.456;2024-01-27T12:10:00;3.20;;;2.20;;
11386;SDS011;5748;53.102;8.456;2024-01-27T12:12:27;2.60;;;2.00;;
11386;SDS011;5748;53.102;8.456;2024-01-27T12:14:54;1.60;;;1.43;;
11386;SDS011;5748;53.102;8.456;2024-01-27T12:17:22;2.57;;;1.80;;
11386;SDS011;5748;53.102;8.456;2024-01-27T12:19:49;3.97;;;1.93;;
11386;SDS011;5748;53.102;8.456;2024-01-27T12:22:23;2.70;;;1.83;;
11386;SDS011;5748;53.102;8.456;2024-01-27T12:24:52;3.57;;;2.00;;
11386;SDS011;5748;53.102;8.456;2024-01-27T12:27:21;2.63;;;1.53;;
11386;SDS011;5748;53.102;8.456;2024-01-27T12:29:48;2.13;;;1.60;;
11386;SDS011;5748;53.102;8.456;2024-01-27T12:32:16;2.47;;;1.80;;
11386;SDS011;5748;53.102;8.456;2024-01-27T12:34:44;3.35;;;1.80;;
11386;SDS011;5748;53.102;8.456;2024-01-27T12:37:12;3.03;;;1.50;;
11386;SDS011;5748;53.102;8.456;2024-01-27T12:39:42;2.93;;;1.50;;
11386;SDS011;5748;53.102;8.456;2024-01-27T12:42:09;2.67;;;1.50;;
11386;SDS011;5748;53.102;8.456;2024-01-27T12:44:37;2.73;;;1.90;;
11386;SDS011;5748;53.102;8.456;2024-01-27T12:47:05;4.40;;;1.73;;
11386;SDS011;5748;53.102;8.456;2024-01-27T12:49:33;2.67;;;1.67;;
11386;SDS011;5748;53.102;8.456;2024-01-27T12:52:01;2.97;;;1.90;;
11386;SDS011;5748;53.102;8.456;2024-01-27T12:54:28;2.47;;;1.60;;
11386;SDS011;5748;53.102;8.456;2024-01-27T12:56:57;3.83;;;2.07;;
11386;SDS011;5748;53.102;8.456;2024-01-27T12:59:26;2.70;;;1.80;;
11386;SDS011;5748;53.102;8.456;2024-01-27T13:01:53;2.13;;;1.90;;
11386;SDS011;5748;53.102;8.456;2024-01-27T13:04:21;2.50;;;1.83;;
11386;SDS011;5748;53.102;8.456;2024-01-27T13:06:49;1.87;;;1.50;;
11386;SDS011;5748;53.102;8.456;2024-01-27T13:09:16;2.73;;;1.97;;
11386;SDS011;5748;53.102;8.456;2024-01-27T13:11:43;2.57;;;1.83;;
11386;SDS011;5748;53.102;8.456;2024-01-27T13:14:11;2.77;;;2.00;;
11386;SDS011;5748;53.102;8.456;2024-01-27T13:16:39;2.80;;;1.90;;
11386;SDS011;5748;53.102;8.456;2024-01-27T13:19:06;3.00;;;2.00;;
11386;SDS011;5748;53.102;8.456;2024-01-27T13:21:33;2.40;;;1.90;;
11386;SDS011;5748;53.102;8.456;2024-01-27T13:24:00;2.90;;;2.00;;
11386;SDS011;5748;53.102;8.456;2024-01-27T13:26:28;2.63;;;2.17;;
11386;SDS011;5748;53.102;8.456;2024-01-27T13:28:57;2.00;;;1.80;;
11386;SDS011;5748;53.102;8.456;2024-01-27T13:31:25;4.73;;;2.10;;
11386;SDS011;5748;53.102;8.456;2024-01-27T13:33:52;2.53;;;1.97;;
11386;SDS011;5748;53.102;8.456;2024-01-27T13:36:19;2.37;;;1.77;;
11386;SDS011;5748;53.102;8.456;2024-01-27T13:38:46;2.07;;;1.67;;
11386;SDS011;5748;53.102;8.456;2024-01-27T13:41:13;3.77;;;1.80;;
11386;SDS011;5748;53.102;8.456;2024-01-27T13:43:40;2.93;;;1.60;;
11386;SDS011;5748;53.102;8.456;2024-01-27T13:46:07;2.53;;;1.73;;
11386;SDS011;5748;53.102;8.456;2024-01-27T13:48:36;1.90;;;1.70;;
11386;SDS011;5748;53.102;8.456;2024-01-27T13:51:03;2.50;;;1.50;;
11386;SDS011;5748;53.102;8.456;2024-01-27T13:53:30;2.43;;;1.80;;
11386;SDS011;5748;53.102;8.456;2024-01-27T13:55:57;2.00;;;1.57;;
11386;SDS011;5748;53.102;8.456;2024-01-27T13:58:25;2.50;;;1.60;;
11386;SDS011;5748;53.102;8.456;2024-01-27T14:00:52;1.37;;;1.27;;
11386;SDS011;5748;53.102;8.456;2024-01-27T14:03:19;4.30;;;1.57;;
11386;SDS011;5748;53.102;8.456;2024-01-27T14:05:47;1.73;;;1.50;;
11386;SDS011;5748;53.102;8.456;2024-01-27T14:08:14;2.07;;;1.60;;
11386;SDS011;5748;53.102;8.456;2024-01-27T14:10:42;3.53;;;2.00;;
11386;SDS011;5748;53.102;8.456;2024-01-27T14:13:09;2.27;;;1.60;;
11386;SDS011;5748;53.102;8.456;2024-01-27T14:15:36;2.50;;;1.73;;
11386;SDS011;5748;53.102;8.456;2024-01-27T14:18:04;3.23;;;1.60;;
11386;SDS011;5748;53.102;8.456;2024-01-27T14:20:32;3.80;;;1.70;;
11386;SDS011;5748;53.102;8.456;2024-01-27T14:23:03;3.17;;;1.60;;
11386;SDS011;5748;53.102;8.456;2024-01-27T14:25:31;2.33;;;1.27;;
11386;SDS011;5748;53.102;8.456;2024-01-27T14:27:58;2.93;;;1.77;;
11386;SDS011;5748;53.102;8.456;2024-01-27T14:30:26;3.07;;;1.70;;
11386;SDS011;5748;53.102;8.456;2024-01-27T14:32:53;2.60;;;1.60;;
11386;SDS011;5748;53.102;8.456;2024-01-27T14:35:20;1.70;;;1.40;;
11386;SDS011;5748;53.102;8.456;2024-01-27T14:37:47;1.80;;;1.43;;
11386;SDS011;5748;53.102;8.456;2024-01-27T14:40:15;2.60;;;1.70;;
11386;SDS011;5748;53.102;8.456;2024-01-27T14:42:43;1.80;;;1.47;;
11386;SDS011;5748;53.102;8.456;2024-01-27T14:45:11;2.90;;;1.60;;
11386;SDS011;5748;53.102;8.456;2024-01-27T14:47:39;3.70;;;1.57;;
11386;SDS011;5748;53.102;8.456;2024-01-27T14:50:06;2.73;;;1.70;;
11386;SDS011;5748;53.102;8.456;2024-01-27T14:52:34;1.73;;;1.40;;
11386;SDS011;5748;53.102;8.456;2024-01-27T14:55:01;1.80;;;1.50;;
11386;SDS011;5748;53.102;8.456;2024-01-27T14:57:30;2.13;;;1.37;;
11386;SDS011;5748;53.102;8.456;2024-01-27T14:59:57;3.03;;;1.90;;
11386;SDS011;5748;53.102;8.456;2024-01-27T15:02:24;3.30;;;2.03;;
11386;SDS011;5748;53.102;8.456;2024-01-27T15:04:54;2.70;;;1.30;;